KMFD/MFD METAR and TAF weather

Enter ICAO airport designator
Station Type Date Time Source
KMFD METAR 2021/05/12 04:52 UTC NOAA

KMFD 120452Z AUTO 27003KT 10SM CLR 06/M02 A3033 RMK AO2 SLP274 T00611017 401220028 TSNO


Station Type Date Time Source
KMFD Decoded METAR 2021/05/12 04:52 UTC NOAA

LAHM MUNICIPAL AIRPORT, OH, United States (KMFD) 40-49N 082-31W 395M
May 12, 2021 - 12:52 AM EDT / 2021.05.12 0452 UTC
Wind: from the W (270 degrees) at 3 MPH (3 KT):0
Visibility: 10 mile(s):0
Sky conditions: clear
Temperature: 43.0 F (6.1 C)
Dew Point: 28.9 F (-1.7 C)
Relative Humidity: 57%
Pressure (altimeter): 30.33 in. Hg (1027 hPa)
ob: KMFD 120452Z AUTO 27003KT 10SM CLR 06/M02 A3033 RMK AO2 SLP274 T00611017 401220028 TSNO
cycle: 5

Station Type Date Time Source
KMFD TAF 2021/05/11 18:21 UTC NOAA

TAF KMFD 111720Z 1118/1218 32012G22KT P6SM SCT050
FM112300 33008KT P6SM SCT150
FM120300 VRB03KT P6SM SKC
FM121500 01010KT P6SM FEW250

Example: see airport list